Time;durP1;ratioP1;P1;durP2;ratioP2;P2;SDS_P1;SDS_P2;PMS_P1;PMS_P2;Temp;Humidity;BMP_temperature;BMP_pressure;BME280_temperature;BME280_humidity;BME280_pressure;Samples;Min_cycle;Max_cycle;Signal;HPM_P1;HPM_P2
2023/09/15 00:00:43;;;;;;;8.88;5.10;;;13.10;99.90;;;;;;5033155;28;20038;-58
2023/09/15 00:03:09;;;;;;;8.40;5.00;;;13.10;99.90;;;;;;5030282;28;20033;-58
2023/09/15 00:05:35;;;;;;;7.90;4.90;;;13.10;99.90;;;;;;5025408;28;20055;-58
2023/09/15 00:08:04;;;;;;;9.57;4.60;;;13.00;99.90;;;;;;5025884;28;20453;-57
2023/09/15 00:10:34;;;;;;;7.63;5.10;;;13.00;99.90;;;;;;5022306;28;20562;-57
2023/09/15 00:13:00;;;;;;;8.05;5.30;;;13.00;99.90;;;;;;5027888;28;20548;-58
2023/09/15 00:15:26;;;;;;;9.40;5.20;;;13.00;99.90;;;;;;5024706;28;20037;-58
2023/09/15 00:17:54;;;;;;;9.80;5.25;;;13.00;99.90;;;;;;5067007;28;20037;-58
2023/09/15 00:20:20;;;;;;;8.35;4.65;;;12.90;99.90;;;;;;5026660;28;20425;-57
2023/09/15 00:22:50;;;;;;;10.43;5.07;;;13.00;99.90;;;;;;5033629;28;20033;-58
2023/09/15 00:25:19;;;;;;;7.75;4.90;;;12.90;99.90;;;;;;5037589;28;20596;-58
2023/09/15 00:27:53;;;;;;;6.70;4.82;;;13.00;99.90;;;;;;5025177;28;20447;-58
2023/09/15 00:30:20;;;;;;;9.48;5.10;;;13.10;99.90;;;;;;5030499;28;20481;-57
2023/09/15 00:32:47;;;;;;;8.77;4.88;;;13.10;99.90;;;;;;5034013;28;20036;-58
2023/09/15 00:35:16;;;;;;;8.27;4.60;;;13.00;99.90;;;;;;5022779;28;20041;-58
2023/09/15 00:37:43;;;;;;;9.68;5.00;;;13.00;99.90;;;;;;5028108;28;20033;-58
2023/09/15 00:40:10;;;;;;;7.28;4.88;;;12.90;99.90;;;;;;5026140;28;20132;-59
2023/09/15 00:42:37;;;;;;;8.38;4.65;;;12.90;99.90;;;;;;5029177;28;20033;-58
2023/09/15 00:45:05;;;;;;;8.73;4.75;;;13.30;99.90;;;;;;5032295;28;20250;-58
2023/09/15 00:47:32;;;;;;;7.97;4.80;;;;;;;;;;5024450;28;20092;-57
2023/09/15 00:49:58;;;;;;;7.28;4.68;;;12.50;99.90;;;;;;5026922;28;20049;-57
2023/09/15 00:52:24;;;;;;;8.27;5.00;;;13.00;99.90;;;;;;5030927;28;20042;-58
2023/09/15 00:54:49;;;;;;;9.43;4.82;;;13.10;99.90;;;;;;5034640;28;20049;-58
2023/09/15 00:57:15;;;;;;;6.57;4.68;;;12.80;99.90;;;;;;5031488;28;20099;-58
2023/09/15 00:59:42;;;;;;;8.23;4.97;;;;;;;;;;5031241;28;20586;-57
2023/09/15 01:02:08;;;;;;;9.27;4.53;;;13.40;99.90;;;;;;5025815;28;20484;-57
2023/09/15 01:04:36;;;;;;;7.18;4.60;;;;;;;;;;5027716;28;20389;-58
2023/09/15 01:07:05;;;;;;;10.63;4.63;;;;;;;;;;5032584;28;20447;-56
2023/09/15 01:09:31;;;;;;;7.95;4.90;;;;;;;;;;5035779;28;20107;-58
2023/09/15 01:11:57;;;;;;;6.60;4.55;;;;;;;;;;5033092;28;20049;-57
2023/09/15 01:14:23;;;;;;;9.65;4.78;;;12.60;99.90;;;;;;5027363;28;20354;-57
2023/09/15 01:16:56;;;;;;;7.38;4.68;;;12.70;99.90;;;;;;5032142;28;20039;-58
2023/09/15 01:19:54;;;;;;;6.95;4.47;;;12.60;99.90;;;;;;5032289;28;20037;-56
2023/09/15 01:22:31;;;;;;;7.93;4.85;;;12.50;99.90;;;;;;5022521;28;20413;-57
2023/09/15 01:25:28;;;;;;;8.05;5.00;;;12.50;99.90;;;;;;5030684;28;20033;-56
2023/09/15 01:28:11;;;;;;;7.82;4.53;;;;;;;;;;5018199;28;20037;-58
2023/09/15 01:30:38;;;;;;;6.38;4.35;;;11.90;99.90;;;;;;5024438;28;20049;-58
2023/09/15 01:33:05;;;;;;;8.27;4.60;;;12.50;99.90;;;;;;5034166;28;20329;-57
2023/09/15 01:35:32;;;;;;;10.15;4.75;;;12.50;99.90;;;;;;5025025;28;20041;-57
2023/09/15 01:37:59;;;;;;;7.88;4.93;;;12.50;99.90;;;;;;5028432;28;20045;-56
2023/09/15 01:40:27;;;;;;;8.88;4.70;;;;;;;;;;5023401;28;20045;-57
2023/09/15 01:42:54;;;;;;;9.63;4.40;;;12.20;99.90;;;;;;5024435;28;20037;-57
2023/09/15 01:45:20;;;;;;;7.30;4.13;;;12.20;99.90;;;;;;5021600;28;20052;-58
2023/09/15 01:47:48;;;;;;;6.55;4.70;;;;;;;;;;5025098;28;20042;-58
2023/09/15 01:50:15;;;;;;;6.57;4.85;;;12.30;99.90;;;;;;5031437;28;20056;-57
2023/09/15 01:52:43;;;;;;;9.10;4.70;;;12.60;99.90;;;;;;5035983;28;20033;-57
2023/09/15 01:55:10;;;;;;;7.63;4.68;;;12.50;99.90;;;;;;5027773;28;20140;-58
2023/09/15 01:57:35;;;;;;;7.47;4.55;;;12.40;99.90;;;;;;5027127;28;20076;-58
2023/09/15 02:00:01;;;;;;;6.53;4.63;;;12.30;99.90;;;;;;5029214;28;20041;-57
2023/09/15 02:02:26;;;;;;;8.20;4.22;;;12.40;99.90;;;;;;5024623;28;20133;-58
2023/09/15 02:04:53;;;;;;;9.93;4.32;;;12.30;99.90;;;;;;5025708;28;20070;-57
2023/09/15 02:07:19;;;;;;;7.35;4.80;;;12.30;99.90;;;;;;5027288;28;20049;-56
2023/09/15 02:09:46;;;;;;;6.70;4.70;;;;;;;;;;5029629;28;20098;-58
2023/09/15 02:12:11;;;;;;;5.85;4.30;;;;;;;;;;5028182;28;20045;-56
2023/09/15 02:14:37;;;;;;;6.75;4.38;;;12.10;99.90;;;;;;5031190;28;20110;-57
2023/09/15 02:17:04;;;;;;;10.15;4.63;;;12.20;99.90;;;;;;5026274;28;20036;-59
2023/09/15 02:19:30;;;;;;;7.35;4.28;;;12.10;99.90;;;;;;5029216;28;20041;-58
2023/09/15 02:21:57;;;;;;;7.80;4.10;;;12.00;99.90;;;;;;5028810;28;20049;-58
2023/09/15 02:24:22;;;;;;;6.93;4.30;;;12.00;99.90;;;;;;5030753;28;20029;-58
2023/09/15 02:26:48;;;;;;;6.30;4.20;;;11.80;99.90;;;;;;5031247;28;20197;-58
2023/09/15 02:29:14;;;;;;;7.90;4.60;;;11.90;99.90;;;;;;5020066;28;20048;-58
2023/09/15 02:31:41;;;;;;;10.57;4.55;;;12.00;99.90;;;;;;5036793;28;20528;-58
2023/09/15 02:34:06;;;;;;;8.07;5.15;;;11.90;99.90;;;;;;5037200;28;20179;-57
2023/09/15 02:36:32;;;;;;;8.30;4.40;;;11.80;99.90;;;;;;5028728;28;20034;-58
2023/09/15 02:38:57;;;;;;;7.47;4.43;;;11.90;99.90;;;;;;5032106;28;20033;-57
2023/09/15 02:41:23;;;;;;;10.40;5.00;;;11.90;99.90;;;;;;5031259;28;20045;-57
2023/09/15 02:43:48;;;;;;;6.18;4.55;;;11.90;99.90;;;;;;5039223;28;20021;-57
2023/09/15 02:46:14;;;;;;;6.90;4.80;;;11.90;99.90;;;;;;5034321;28;20037;-58
2023/09/15 02:48:42;;;;;;;8.13;5.18;;;11.90;99.90;;;;;;5031246;28;20065;-58
2023/09/15 02:51:07;;;;;;;6.50;4.18;;;11.90;99.90;;;;;;5026212;28;20040;-57
2023/09/15 02:53:33;;;;;;;5.93;4.55;;;11.90;99.90;;;;;;5024385;28;20029;-58
2023/09/15 02:56:02;;;;;;;6.18;4.28;;;11.80;99.90;;;;;;5037803;28;20068;-58
2023/09/15 02:58:28;;;;;;;7.03;4.70;;;11.80;99.90;;;;;;5032713;28;20095;-58
2023/09/15 03:00:54;;;;;;;7.82;4.43;;;11.80;99.90;;;;;;5028901;28;20033;-58
2023/09/15 03:03:22;;;;;;;9.90;5.07;;;11.80;99.90;;;;;;5030740;28;20508;-58
2023/09/15 03:05:48;;;;;;;8.85;4.38;;;11.80;99.90;;;;;;5029497;28;20099;-57
2023/09/15 03:08:14;;;;;;;8.15;4.30;;;11.80;99.90;;;;;;5029280;28;20349;-57
2023/09/15 03:10:40;;;;;;;6.38;4.35;;;11.80;99.90;;;;;;5031350;28;20060;-58
2023/09/15 03:13:06;;;;;;;8.88;4.50;;;11.70;99.90;;;;;;5034240;28;20708;-57
2023/09/15 03:15:32;;;;;;;7.32;4.55;;;11.80;99.90;;;;;;5026184;28;20054;-58
2023/09/15 03:17:58;;;;;;;7.30;4.95;;;11.80;99.90;;;;;;5029537;28;20045;-58
2023/09/15 03:20:24;;;;;;;9.05;4.40;;;11.70;99.90;;;;;;5028828;28;20397;-58
2023/09/15 03:22:51;;;;;;;6.53;4.13;;;11.70;99.90;;;;;;5037163;28;20261;-57
2023/09/15 03:25:17;;;;;;;6.93;5.07;;;11.60;99.90;;;;;;5026637;28;20607;-58
2023/09/15 03:27:43;;;;;;;10.43;4.78;;;11.60;99.90;;;;;;5030025;28;20670;-58
2023/09/15 03:30:10;;;;;;;5.85;4.15;;;11.70;99.90;;;;;;5035314;28;20701;-58
2023/09/15 03:32:36;;;;;;;8.50;5.15;;;11.70;99.90;;;;;;5028755;28;20437;-58
2023/09/15 03:35:05;;;;;;;8.45;5.28;;;11.70;99.90;;;;;;5035587;28;20056;-57
2023/09/15 03:37:32;;;;;;;10.18;4.70;;;11.70;99.90;;;;;;5029636;28;20515;-57
2023/09/15 03:39:58;;;;;;;8.02;5.35;;;11.60;99.90;;;;;;5031989;28;20106;-58
2023/09/15 03:42:23;;;;;;;8.65;5.22;;;11.50;99.90;;;;;;5025755;28;20045;-58
2023/09/15 03:44:49;;;;;;;9.52;4.53;;;11.60;99.90;;;;;;5021817;28;20026;-58
2023/09/15 03:47:14;;;;;;;8.45;4.93;;;11.50;99.90;;;;;;5024209;28;20286;-57
2023/09/15 03:49:40;;;;;;;9.02;5.18;;;11.50;99.90;;;;;;5023920;28;20143;-58
2023/09/15 03:52:06;;;;;;;10.18;5.10;;;11.50;99.90;;;;;;5029879;28;20041;-57
2023/09/15 03:54:31;;;;;;;6.55;4.25;;;11.40;99.90;;;;;;5028697;28;20049;-58
2023/09/15 03:56:57;;;;;;;7.97;4.18;;;11.40;99.90;;;;;;5031301;28;20134;-58
2023/09/15 03:59:22;;;;;;;7.43;4.88;;;11.40;99.90;;;;;;5025867;28;20038;-58
2023/09/15 04:01:48;;;;;;;9.73;4.93;;;11.40;99.90;;;;;;5037491;28;20559;-58
2023/09/15 04:04:13;;;;;;;6.20;4.07;;;11.40;99.90;;;;;;5022682;28;20065;-58
2023/09/15 04:06:39;;;;;;;8.43;4.22;;;11.50;99.90;;;;;;5033059;28;20052;-57
2023/09/15 04:09:09;;;;;;;6.70;4.90;;;11.60;99.90;;;;;;5022097;28;20118;-58
2023/09/15 04:11:35;;;;;;;6.63;4.43;;;11.50;99.90;;;;;;5028686;28;20052;-58
2023/09/15 04:14:01;;;;;;;7.32;4.70;;;11.60;99.90;;;;;;5017038;28;20033;-58
2023/09/15 04:16:26;;;;;;;7.22;4.50;;;11.60;99.90;;;;;;5020132;28;20504;-59
2023/09/15 04:18:52;;;;;;;13.05;4.95;;;11.60;99.90;;;;;;5026927;28;20638;-58
2023/09/15 04:21:17;;;;;;;6.32;4.22;;;11.70;99.90;;;;;;5028852;28;20395;-58
2023/09/15 04:23:43;;;;;;;9.13;4.30;;;11.30;99.90;;;;;;5031477;28;20029;-58
2023/09/15 04:26:09;;;;;;;8.40;4.55;;;11.40;99.90;;;;;;5035271;28;20057;-58
2023/09/15 04:28:34;;;;;;;7.20;4.40;;;11.50;99.90;;;;;;5027856;28;20410;-58
2023/09/15 04:31:00;;;;;;;7.80;4.10;;;11.50;99.90;;;;;;5025651;28;20356;-58
2023/09/15 04:33:26;;;;;;;5.88;3.83;;;11.50;99.90;;;;;;5020071;28;20052;-58
2023/09/15 04:35:51;;;;;;;7.55;4.32;;;11.40;99.90;;;;;;5021870;28;20519;-58
2023/09/15 04:38:18;;;;;;;10.02;5.10;;;11.40;99.90;;;;;;5008067;28;20038;-58
2023/09/15 04:40:43;;;;;;;10.25;4.70;;;11.50;99.90;;;;;;5005216;28;20049;-58
2023/09/15 04:43:09;;;;;;;7.97;3.75;;;11.40;99.90;;;;;;5007186;28;20034;-58
2023/09/15 04:45:36;;;;;;;6.18;3.85;;;11.50;99.90;;;;;;5012789;28;20041;-58
2023/09/15 04:48:01;;;;;;;8.25;4.00;;;11.50;99.90;;;;;;5010337;28;20516;-57
2023/09/15 04:50:27;;;;;;;8.65;4.10;;;11.40;99.90;;;;;;5003001;28;20030;-58
2023/09/15 04:52:53;;;;;;;7.47;4.32;;;11.40;99.90;;;;;;5016828;28;20034;-58
2023/09/15 04:55:19;;;;;;;10.10;4.63;;;11.40;99.90;;;;;;5003447;28;20038;-57
2023/09/15 04:57:46;;;;;;;9.77;4.35;;;11.40;99.90;;;;;;5008153;28;20587;-57
2023/09/15 05:00:23;;;;;;;7.25;4.85;;;11.40;99.90;;;;;;5005477;28;20212;-58
2023/09/15 05:02:49;;;;;;;8.63;4.22;;;11.30;99.90;;;;;;5009274;28;20035;-57
2023/09/15 05:05:14;;;;;;;7.38;3.95;;;11.30;99.90;;;;;;4998901;28;20125;-57
2023/09/15 05:07:40;;;;;;;8.13;4.22;;;11.40;99.90;;;;;;5005698;28;20496;-58
2023/09/15 05:10:08;;;;;;;6.85;3.95;;;11.40;99.90;;;;;;5015049;28;20053;-57
2023/09/15 05:12:33;;;;;;;8.68;5.00;;;11.40;99.90;;;;;;5026840;28;20044;-58
2023/09/15 05:14:59;;;;;;;7.75;4.55;;;11.30;99.90;;;;;;5010687;28;20038;-58
2023/09/15 05:17:26;;;;;;;7.20;3.88;;;11.40;99.90;;;;;;5015340;28;20030;-58
2023/09/15 05:19:53;;;;;;;7.53;3.95;;;10.60;99.90;;;;;;5010589;28;20438;-59
2023/09/15 05:22:19;;;;;;;20.55;5.25;;;11.40;99.90;;;;;;5016771;28;20030;-59
2023/09/15 05:24:44;;;;;;;17.35;9.63;;;11.40;99.90;;;;;;5033251;28;20063;-54
2023/09/15 05:27:10;;;;;;;39.53;24.23;;;11.40;99.90;;;;;;5030138;28;20167;-59
2023/09/15 05:29:36;;;;;;;17.20;7.90;;;11.40;99.90;;;;;;5025633;28;20072;-59
2023/09/15 05:32:01;;;;;;;9.98;7.13;;;11.50;99.90;;;;;;5030661;28;20405;-60
2023/09/15 05:34:27;;;;;;;10.38;5.80;;;11.40;99.90;;;;;;5028508;28;20394;-59
2023/09/15 05:36:52;;;;;;;9.80;4.78;;;11.50;99.90;;;;;;5029792;28;20037;-60
2023/09/15 05:39:18;;;;;;;9.25;4.68;;;11.50;99.90;;;;;;5025820;28;20037;-60
2023/09/15 05:41:44;;;;;;;10.02;5.00;;;11.50;99.90;;;;;;5027192;28;20047;-60
2023/09/15 05:44:09;;;;;;;12.45;4.72;;;11.10;99.90;;;;;;5027530;28;20494;-60
2023/09/15 05:46:35;;;;;;;8.80;4.75;;;11.20;99.90;;;;;;5027807;28;20038;-59
2023/09/15 05:49:01;;;;;;;6.43;4.13;;;11.60;99.90;;;;;;5027469;28;20030;-60
2023/09/15 05:51:26;;;;;;;11.73;4.47;;;11.60;99.90;;;;;;5029486;28;20114;-60
2023/09/15 05:53:52;;;;;;;16.20;5.13;;;11.70;99.90;;;;;;5013291;28;20109;-60
2023/09/15 05:56:18;;;;;;;12.73;4.97;;;11.60;99.90;;;;;;5025851;28;20045;-59
2023/09/15 05:58:43;;;;;;;11.75;4.50;;;11.80;99.90;;;;;;5029261;28;20041;-60
2023/09/15 06:01:09;;;;;;;12.75;4.35;;;11.70;99.90;;;;;;5014909;28;20041;-60
2023/09/15 06:03:36;;;;;;;10.25;4.47;;;11.80;99.90;;;;;;5015794;28;20041;-59
2023/09/15 06:06:02;;;;;;;8.13;4.30;;;11.70;99.90;;;;;;5022148;28;20453;-58
2023/09/15 06:08:28;;;;;;;9.23;4.50;;;11.70;99.90;;;;;;5028215;28;20067;-58
2023/09/15 06:10:53;;;;;;;10.50;5.15;;;11.80;99.90;;;;;;5025358;28;20029;-59
2023/09/15 06:13:19;;;;;;;9.93;4.88;;;11.90;99.90;;;;;;5028803;28;20087;-58
2023/09/15 06:15:45;;;;;;;11.00;5.68;;;11.80;99.90;;;;;;5033752;28;20492;-58
2023/09/15 06:18:11;;;;;;;9.52;4.72;;;;;;;;;;5024140;28;20128;-60
2023/09/15 06:20:37;;;;;;;11.43;5.05;;;11.90;99.90;;;;;;5022562;28;20059;-60
2023/09/15 06:23:03;;;;;;;11.15;5.45;;;12.30;99.90;;;;;;5021038;28;21943;-58
2023/09/15 06:25:30;;;;;;;14.88;8.23;;;12.50;99.90;;;;;;5025506;28;20121;-58
2023/09/15 06:27:57;;;;;;;62.72;38.55;;;12.50;99.90;;;;;;5022256;28;20071;-59
2023/09/15 06:30:22;;;;;;;19.58;9.55;;;12.70;99.90;;;;;;5031834;28;20497;-59
2023/09/15 06:32:48;;;;;;;11.93;6.80;;;12.60;99.90;;;;;;5023166;28;20217;-59
2023/09/15 06:35:14;;;;;;;18.60;6.90;;;12.80;99.90;;;;;;5021228;28;20038;-60
2023/09/15 06:37:40;;;;;;;10.65;5.72;;;12.90;99.90;;;;;;5017851;28;20091;-60
2023/09/15 06:40:07;;;;;;;23.98;7.45;;;12.90;99.90;;;;;;5029264;28;20128;-60
2023/09/15 06:42:34;;;;;;;25.90;8.70;;;13.10;99.90;;;;;;5029718;28;20025;-59
2023/09/15 06:44:59;;;;;;;13.02;6.25;;;13.30;99.90;;;;;;5027586;28;20049;-60
2023/09/15 06:47:25;;;;;;;14.63;5.80;;;13.40;99.90;;;;;;5024079;28;20042;-59
2023/09/15 06:49:50;;;;;;;14.40;5.88;;;13.40;99.90;;;;;;5026808;28;20052;-59
2023/09/15 06:52:19;;;;;;;10.68;6.13;;;;;;;;;;5027328;28;20076;-58
2023/09/15 06:54:45;;;;;;;14.65;7.63;;;;;;;;;;5029947;28;20148;-59
2023/09/15 06:57:10;;;;;;;15.43;6.63;;;;;;;;;;5031346;28;20105;-57
2023/09/15 06:59:36;;;;;;;38.63;25.67;;;;;;;;;;5019831;28;20630;-59
2023/09/15 07:02:02;;;;;;;22.33;11.15;;;14.40;99.90;;;;;;5020929;28;20342;-58
2023/09/15 07:04:29;;;;;;;15.77;6.03;;;14.40;99.90;;;;;;5007335;28;20030;-57
2023/09/15 07:06:55;;;;;;;12.23;4.88;;;14.40;99.90;;;;;;5007495;28;20037;-58
2023/09/15 07:09:22;;;;;;;11.20;4.68;;;14.40;99.90;;;;;;5023129;28;20659;-59
2023/09/15 07:11:47;;;;;;;10.55;5.03;;;14.60;99.90;;;;;;5034453;28;20504;-58
2023/09/15 07:14:14;;;;;;;13.75;5.03;;;;;;;;;;5031387;28;20046;-58
2023/09/15 07:16:43;;;;;;;12.50;4.97;;;;;;;;;;5035149;28;20521;-58
2023/09/15 07:19:09;;;;;;;26.88;7.68;;;;;;;;;;5026265;28;20360;-58
2023/09/15 07:21:37;;;;;;;12.25;4.50;;;;;;;;;;5034589;28;20037;-59
2023/09/15 07:24:04;;;;;;;12.52;4.40;;;14.80;99.90;;;;;;5032131;28;20033;-58
2023/09/15 07:26:29;;;;;;;17.25;4.13;;;15.00;99.90;;;;;;5032662;28;20075;-59
2023/09/15 07:28:55;;;;;;;9.50;3.50;;;15.00;99.90;;;;;;5033481;28;20054;-59
2023/09/15 07:31:20;;;;;;;9.32;3.83;;;15.10;99.90;;;;;;5032843;28;20037;-58
2023/09/15 07:33:47;;;;;;;7.60;3.75;;;15.20;99.90;;;;;;5032457;28;20037;-58
2023/09/15 07:36:13;;;;;;;10.18;3.85;;;15.30;99.90;;;;;;5035497;28;20403;-58
2023/09/15 07:38:38;;;;;;;14.07;3.40;;;15.50;99.90;;;;;;5028760;28;20029;-59
2023/09/15 07:41:04;;;;;;;14.80;3.90;;;15.60;99.90;;;;;;5032142;28;20044;-59
2023/09/15 07:43:30;;;;;;;9.35;3.45;;;15.60;99.90;;;;;;5030556;28;20116;-58
2023/09/15 07:45:56;;;;;;;9.98;3.55;;;15.60;99.90;;;;;;5036472;28;20044;-59
2023/09/15 07:48:21;;;;;;;9.10;3.72;;;15.60;99.90;;;;;;5033127;28;20136;-58
2023/09/15 07:50:47;;;;;;;11.77;3.63;;;15.60;99.90;;;;;;5034132;28;20036;-58
2023/09/15 07:53:13;;;;;;;10.05;3.70;;;15.70;99.90;;;;;;5037500;28;20457;-60
2023/09/15 07:55:39;;;;;;;8.95;3.58;;;15.90;99.90;;;;;;5034903;28;20091;-59
2023/09/15 07:58:04;;;;;;;10.15;3.35;;;15.90;99.90;;;;;;5033433;28;20041;-58
2023/09/15 08:00:30;;;;;;;12.02;4.13;;;15.90;99.90;;;;;;5030819;28;20116;-59
2023/09/15 08:02:55;;;;;;;11.18;3.10;;;16.00;99.90;;;;;;5018192;28;20491;-59
2023/09/15 08:05:21;;;;;;;10.13;3.67;;;16.00;99.90;;;;;;5027274;28;20098;-58
2023/09/15 08:07:48;;;;;;;9.77;3.30;;;16.10;99.90;;;;;;5025980;28;20034;-59
2023/09/15 08:10:14;;;;;;;9.32;3.55;;;16.20;99.90;;;;;;5031696;28;20112;-60
2023/09/15 08:12:40;;;;;;;7.32;3.47;;;16.30;99.90;;;;;;5025304;28;20083;-59
2023/09/15 08:15:06;;;;;;;10.43;3.25;;;16.40;99.90;;;;;;5032094;28;20515;-58
2023/09/15 08:17:32;;;;;;;9.60;3.40;;;16.50;99.90;;;;;;5035765;28;20037;-59
2023/09/15 08:19:59;;;;;;;8.55;3.00;;;16.60;99.90;;;;;;5032523;28;20107;-59
2023/09/15 08:22:26;;;;;;;10.20;3.35;;;16.70;99.90;;;;;;5035327;28;20048;-59
2023/09/15 08:24:53;;;;;;;9.27;3.60;;;16.80;99.90;;;;;;5031220;28;20075;-58
2023/09/15 08:27:19;;;;;;;8.50;3.50;;;16.80;99.90;;;;;;5027200;28;20040;-59
2023/09/15 08:29:45;;;;;;;9.07;3.20;;;17.00;99.90;;;;;;5031106;28;20044;-58
2023/09/15 08:32:13;;;;;;;8.13;3.60;;;17.00;99.90;;;;;;5027074;28;20481;-59
2023/09/15 08:34:39;;;;;;;13.60;3.30;;;17.10;99.90;;;;;;5026349;28;20087;-59
2023/09/15 08:37:04;;;;;;;11.18;3.60;;;17.30;99.90;;;;;;5020212;28;20064;-58
2023/09/15 08:39:30;;;;;;;11.25;3.42;;;17.20;99.90;;;;;;5023077;28;20120;-57
2023/09/15 08:42:04;;;;;;;12.27;4.22;;;17.30;99.90;;;;;;5034792;28;20044;-57
2023/09/15 08:44:31;;;;;;;9.48;3.78;;;17.40;99.90;;;;;;5023815;28;20030;-58
2023/09/15 08:47:00;;;;;;;12.05;3.90;;;17.40;99.90;;;;;;5056350;28;20033;-58
2023/09/15 08:49:28;;;;;;;13.15;4.15;;;17.40;99.90;;;;;;5030042;28;20136;-59
2023/09/15 08:51:55;;;;;;;11.95;4.05;;;17.40;99.90;;;;;;5031566;28;20669;-59
2023/09/15 08:54:21;;;;;;;8.77;3.55;;;17.50;99.90;;;;;;5036868;28;20029;-60
2023/09/15 08:56:47;;;;;;;9.32;3.58;;;17.60;99.90;;;;;;5033464;28;20119;-59
2023/09/15 08:59:15;;;;;;;8.05;3.40;;;17.80;99.90;;;;;;5032529;28;20043;-58
2023/09/15 09:01:40;;;;;;;8.93;3.47;;;17.80;99.90;;;;;;5026746;28;20523;-60
2023/09/15 09:04:07;;;;;;;7.10;3.22;;;17.80;99.90;;;;;;5026451;28;20065;-58
2023/09/15 09:06:34;;;;;;;9.98;3.10;;;17.80;99.90;;;;;;5027541;28;20064;-60
2023/09/15 09:09:01;;;;;;;13.13;3.67;;;17.90;99.90;;;;;;5035271;28;20131;-59
2023/09/15 09:11:27;;;;;;;8.48;3.70;;;17.90;99.90;;;;;;5035226;28;20145;-59
2023/09/15 09:13:53;;;;;;;7.47;3.58;;;18.00;99.90;;;;;;5024929;28;20102;-60
2023/09/15 09:16:20;;;;;;;11.52;3.45;;;18.00;99.90;;;;;;5022861;28;20444;-60
2023/09/15 09:19:03;;;;;;;11.10;5.07;;;18.10;99.90;;;;;;5010898;28;20033;-59
2023/09/15 09:21:31;;;;;;;11.45;3.70;;;18.10;99.90;;;;;;5007657;28;20040;-59
2023/09/15 09:23:57;;;;;;;10.90;3.67;;;18.20;99.90;;;;;;5012825;28;20494;-60
2023/09/15 09:26:23;;;;;;;9.88;4.03;;;18.30;99.90;;;;;;5021271;28;20498;-60
2023/09/15 09:28:49;;;;;;;11.70;4.38;;;18.30;99.90;;;;;;5009735;28;20118;-60
2023/09/15 09:31:15;;;;;;;11.60;4.07;;;18.40;99.90;;;;;;5010193;28;20045;-59
2023/09/15 09:33:44;;;;;;;10.13;4.72;;;18.40;99.90;;;;;;5008404;28;20100;-59
2023/09/15 09:36:13;;;;;;;10.77;4.05;;;18.40;99.90;;;;;;5008412;28;20069;-59
2023/09/15 09:38:44;;;;;;;8.98;4.43;;;18.40;99.90;;;;;;5010575;28;20034;-59
2023/09/15 09:41:10;;;;;;;11.68;4.65;;;18.40;99.90;;;;;;5016205;28;20088;-59
2023/09/15 09:43:38;;;;;;;14.25;4.15;;;18.50;99.90;;;;;;5010439;28;20085;-60
2023/09/15 09:46:06;;;;;;;10.45;3.83;;;18.50;99.90;;;;;;5000574;28;20049;-60
2023/09/15 09:48:35;;;;;;;10.95;4.20;;;18.50;99.90;;;;;;5007348;28;20042;-59
2023/09/15 09:51:03;;;;;;;13.52;5.13;;;18.60;99.90;;;;;;5007356;28;20038;-59
2023/09/15 09:53:32;;;;;;;10.35;4.18;;;18.60;99.90;;;;;;5031754;28;20041;-59
2023/09/15 09:56:00;;;;;;;12.55;4.10;;;18.70;99.90;;;;;;5018489;28;20057;-59
2023/09/15 09:58:26;;;;;;;12.20;4.53;;;18.70;99.90;;;;;;5025242;28;20120;-58
2023/09/15 10:00:52;;;;;;;8.18;4.00;;;18.70;99.90;;;;;;5033156;28;20069;-58
2023/09/15 10:03:18;;;;;;;10.55;3.92;;;18.70;99.90;;;;;;5023860;28;20043;-59
2023/09/15 10:05:44;;;;;;;9.98;3.88;;;18.70;99.90;;;;;;5032870;28;20033;-59
2023/09/15 10:08:10;;;;;;;9.90;4.35;;;18.80;99.90;;;;;;5026131;28;20615;-58
2023/09/15 10:10:43;;;;;;;10.32;4.30;;;18.80;99.90;;;;;;5032439;28;20040;-59
2023/09/15 10:13:09;;;;;;;;;;;18.90;99.90;;;;;;5025500;28;20132;-59
2023/09/15 10:15:36;;;;;;;9.77;3.83;;;18.90;99.90;;;;;;5034554;28;20329;-58
2023/09/15 10:18:04;;;;;;;8.82;3.92;;;19.00;99.90;;;;;;5032730;28;20442;-59
2023/09/15 10:20:31;;;;;;;8.13;3.42;;;18.90;99.90;;;;;;5031153;28;20064;-59
2023/09/15 10:22:58;;;;;;;8.52;3.90;;;19.10;99.90;;;;;;5034980;28;20041;-59
2023/09/15 10:25:24;;;;;;;10.95;3.75;;;19.10;99.90;;;;;;5026940;28;20037;-59
2023/09/15 10:27:50;;;;;;;9.85;3.80;;;19.20;99.90;;;;;;5026670;28;20112;-59
2023/09/15 10:30:16;;;;;;;8.55;3.75;;;19.20;99.90;;;;;;5025939;28;20045;-59
2023/09/15 10:32:43;;;;;;;8.20;3.42;;;19.20;99.90;;;;;;5030407;28;20052;-59
2023/09/15 10:35:11;;;;;;;6.60;3.58;;;19.30;99.90;;;;;;5023078;28;20531;-59
2023/09/15 10:37:43;;;;;;;6.38;2.92;;;19.30;99.90;;;;;;5025091;28;20121;-59
2023/09/15 10:40:10;;;;;;;7.95;3.63;;;19.40;99.90;;;;;;5056856;28;20032;-57
2023/09/15 10:42:49;;;;;;;9.68;3.90;;;19.50;99.90;;;;;;5023154;28;20034;-60
2023/09/15 10:45:15;;;;;;;9.10;3.63;;;19.50;99.90;;;;;;5020088;28;20041;-59
2023/09/15 10:47:42;;;;;;;7.18;3.60;;;19.70;99.90;;;;;;5023790;28;20034;-60
2023/09/15 10:50:08;;;;;;;5.97;3.38;;;19.70;99.90;;;;;;5030029;28;20081;-59
2023/09/15 10:52:35;;;;;;;7.28;4.05;;;19.70;99.90;;;;;;5030882;28;20151;-59
2023/09/15 10:55:02;;;;;;;5.45;3.28;;;19.80;99.90;;;;;;5036639;28;20366;-59
2023/09/15 10:57:28;;;;;;;10.60;3.80;;;19.80;99.90;;;;;;5035875;28;20690;-60
2023/09/15 10:59:55;;;;;;;6.75;3.25;;;19.80;99.90;;;;;;5024007;28;20060;-60
2023/09/15 11:02:21;;;;;;;6.22;3.45;;;19.90;99.90;;;;;;5015487;28;20076;-60
2023/09/15 11:04:48;;;;;;;7.13;3.25;;;19.90;99.90;;;;;;5012789;28;20041;-59
2023/09/15 11:07:16;;;;;;;5.50;3.00;;;20.00;99.90;;;;;;5012905;28;20038;-58
2023/09/15 11:09:42;;;;;;;7.55;3.55;;;19.20;99.90;;;;;;5012569;28;20058;-59
2023/09/15 11:12:10;;;;;;;12.80;5.32;;;20.30;99.90;;;;;;5012438;28;20037;-59
2023/09/15 11:14:36;;;;;;;7.32;3.10;;;20.20;99.90;;;;;;5013693;28;20038;-60
2023/09/15 11:17:03;;;;;;;6.10;3.45;;;20.10;99.90;;;;;;5008396;28;20037;-60
2023/09/15 11:19:33;;;;;;;6.80;3.60;;;20.20;99.90;;;;;;5011076;28;20084;-59
2023/09/15 11:22:05;;;;;;;6.88;3.50;;;20.20;99.90;;;;;;5012227;28;20053;-59
2023/09/15 11:24:33;;;;;;;6.90;3.78;;;;;;;;;;5024661;28;20061;-59
2023/09/15 11:27:01;;;;;;;8.07;3.38;;;;;;;;;;5016348;28;20042;-58
2023/09/15 11:29:31;;;;;;;5.28;3.17;;;19.60;99.90;;;;;;5010197;28;20509;-58
2023/09/15 11:31:58;;;;;;;5.72;2.95;;;20.10;99.90;;;;;;5015970;28;20402;-59
2023/09/15 11:34:24;;;;;;;5.00;2.95;;;20.20;99.90;;;;;;5011732;28;20496;-59
2023/09/15 11:36:51;;;;;;;7.47;3.25;;;20.20;99.90;;;;;;5016662;28;20033;-59
2023/09/15 11:39:17;;;;;;;6.88;2.90;;;20.20;99.90;;;;;;5012309;28;20214;-59
2023/09/15 11:41:53;;;;;;;6.28;2.80;;;20.20;99.90;;;;;;5010506;28;20048;-58
2023/09/15 11:44:20;;;;;;;7.57;3.38;;;20.20;99.90;;;;;;5007547;28;20053;-59
2023/09/15 11:46:49;;;;;;;4.90;2.92;;;20.20;99.90;;;;;;5014824;28;20038;-59
2023/09/15 11:49:16;;;;;;;4.28;2.45;;;20.30;99.90;;;;;;5014512;28;20038;-59
2023/09/15 11:51:43;;;;;;;4.15;2.35;;;;;;;;;;5013556;28;20486;-59
2023/09/15 11:54:10;;;;;;;4.22;2.67;;;;;;;;;;5014672;28;20103;-59
2023/09/15 11:56:38;;;;;;;3.42;2.30;;;;;;;;;;5008573;28;20110;-59
2023/09/15 11:59:04;;;;;;;4.80;2.50;;;;;;;;;;5013508;28;20631;-59
2023/09/15 12:01:31;;;;;;;3.97;2.63;;;20.10;99.90;;;;;;5015764;28;20042;-59
2023/09/15 12:03:59;;;;;;;6.15;2.35;;;;;;;;;;5013019;28;20556;-59
2023/09/15 12:06:27;;;;;;;5.10;2.63;;;20.50;99.90;;;;;;5010186;28;20125;-59
2023/09/15 12:08:56;;;;;;;3.60;2.53;;;;;;;;;;5034057;28;20128;-59
2023/09/15 12:11:25;;;;;;;7.65;2.80;;;;;;;;;;4997938;28;20480;-59
2023/09/15 12:13:56;;;;;;;57.33;48.08;;;;;;;;;;4999007;28;20053;-58
2023/09/15 12:16:30;;;;;;;4.50;3.17;;;20.20;99.90;;;;;;5008645;28;20049;-58
2023/09/15 12:18:59;;;;;;;4.80;2.78;;;;;;;;;;5013444;28;20045;-59
2023/09/15 12:21:28;;;;;;;6.28;2.28;;;;;;;;;;5006514;28;20080;-59
2023/09/15 12:24:09;;;;;;;4.10;1.95;;;;;;;;;;5010956;28;20046;-59
2023/09/15 12:26:37;;;;;;;3.70;2.10;;;;;;;;;;5006127;28;20505;-59
2023/09/15 12:29:04;;;;;;;4.50;1.95;;;;;;;;;;5013918;28;20137;-59
2023/09/15 12:31:40;;;;;;;3.30;1.60;;;20.20;99.90;;;;;;5005308;28;20093;-58
2023/09/15 12:34:07;;;;;;;2.50;1.52;;;;;;;;;;5004056;28;20137;-59
2023/09/15 12:36:33;;;;;;;3.55;1.90;;;19.60;99.90;;;;;;5009743;28;20129;-59
2023/09/15 12:39:00;;;;;;;2.30;1.80;;;;;;;;;;5009543;28;20525;-60
2023/09/15 12:41:26;;;;;;;4.82;1.80;;;;;;;;;;5012876;28;20199;-59
2023/09/15 12:43:53;;;;;;;4.15;2.10;;;;;;;;;;5011509;28;20031;-59
2023/09/15 12:46:20;;;;;;;8.13;2.70;;;;;;;;;;5018229;28;20104;-59
2023/09/15 12:48:47;;;;;;;4.03;2.17;;;;;;;;;;5020039;28;20041;-59
2023/09/15 12:51:13;;;;;;;4.78;2.42;;;;;;;;;;5018705;28;20378;-59
2023/09/15 12:53:41;;;;;;;3.83;2.15;;;20.50;99.90;;;;;;5008592;28;20029;-59
2023/09/15 12:56:08;;;;;;;4.80;2.08;;;;;;;;;;5023024;28;20227;-59